Página principal
METAR-TAF:

METAR-TAF

Aeroportos :

Aeroporto Internacional Nouakchott-Oumtounsy

Nouakchott, Mauritânia

latitude: 18-18-36N, longitude: 015-58-11W, altura: 3 m

Observação actual do tempo

O boletim foi feito há 34 minutos, às 20:00 UTC
Vento 14 kt de nor-noroeste
Temperatura 20°C
Humidade 68%
Pressão 1013 hPa
Visibilidade: 8000 m

METAR: GQNO 172000Z 33014KT 8000 NSC 20/14 Q1013 NOSIG

Hora: 20:34 (20:34 UTC)

Previsão

O boletim foi feito há 3 horas e 34 minutos, às 17:00 UTC
Previsão válida de 17 às 18 UTC a 18 às 24 UTC
Vento 20 kt de nor-noroeste
Visibilidade: 6000 m
Tornando-se
de 17 às 20 UTC a 17 às 22 UTC
Vento 10 kt de nor-noroeste
Tornando-se
de 18 às 07 UTC a 18 às 09 UTC
Vento 14 kt de nordeste
Tornando-se
de 18 às 14 UTC a 18 às 17 UTC
Vento 16 kt de nor-noroeste

TAF: GQNO 171700Z 1718/1824 33020KT 6000 NSC BECMG 1720/1722 34010KT BECMG 1807/1809 04014KT BECMG 1814/1817 33016KT

Observações e previsões do tempo de mais de 4000 aeroportos (mensagens METAR e TAF).

As estações disponíveis são os pontos amarelos e vermelhos sobre o mapa.

Mova o rato sobre o mapa para ver o nome da estação.

Depois clique no ponto para visualizar as observações e previsões meteorológicas.

Para alterar o mapa : clique nos botões verdes com uma cruz preta para aumentar o zoom; no botão verde com uma pitada de zoom; ou nas setas verdes para mapas adjacentes.


METAR-TAF: